Fallon, NV

5:19 AM PST on February 13, 2016 (GMT -0800)
MesoWest | | Change Station
CLOSE
Current Station
Personal Weather Station
Location: Fallon, NV
Elevation: 3890 ft
Nearby Weather Stations

Elev 3890 ft 39.78 °N, 118.77 °W | Updated 1 hour ago

Clear
Clear
37.0 °F
Feels Like 37.0 °F
N
0.0
Wind Variable Wind from North
Gusts 0.0 mph

Today
High -- | Low -- °F
--% Chance of Precip.
Yesterday
High -- | Low -- °F
Precip. -- in
Pressure 30.14 in
Visibility 10.0 miles
Clouds Clear
Dew Point Not available.
Humidity Not available.
Rainfall in
Snow Depth Not available.
6:50 AM 5:28 PM
Waxing Crescent, 30% visible
METAR KNFL 131256Z AUTO 17005KT 10SM CLR 02/01 A3025 RMK AO2 SLP205 T00220006
Pressure 30.14 in
Visibility 10.0 miles
Clouds Clear
Dew Point Not available.
Humidity Not available.
Rainfall in
Snow Depth Not available.
6:50 AM 5:28 PM
Waxing Crescent, 30% visible
METAR KNFL 131256Z AUTO 17005KT 10SM CLR 02/01 A3025 RMK AO2 SLP205 T00220006

10-Day Weather Forecast

Almanac

Astronomy

Feb. 13, 2016 Rise Set
Actual Time
Civil Twilight
Nautical Twilight
Astronomical Twilight
Moon
Length of Visible Light
Length of Day
Tomorrow will be .
, % of the Moon is Illuminated

Today's Extremes

State Highs State Lows

Community

WunderPhotos

Upload Photos

1,892,545 photos uploaded!

WunderBlog® & News

Nearby

Air Quality

  Air Quality AQ Index Pollutant
Not available.

Snow Depth

Station Depth Elevation

Earthquake Activity

City Distance Mag. Time & Date
Minimum magnitude displayed is 2.5.

Coastal Water Temperatures

Place Temperature

Stations

Nearby Weather Stations

Station Location Temp. Windchill Dew Point Humidity Wind Precip. Elev Updated Type
                   

Watches & Warnings

There are currently no watches in effect.